createdAt,value
2023-05-09T00:01:12.320Z,33.73
2023-05-09T00:03:39.479Z,33.82
2023-05-09T00:06:06.971Z,33.94
2023-05-09T00:08:34.496Z,33.93
2023-05-09T00:11:01.748Z,34.08
2023-05-09T00:13:29.455Z,34.11
2023-05-09T00:15:56.840Z,34.13
2023-05-09T00:18:23.832Z,34.29
2023-05-09T00:20:50.720Z,34.49
2023-05-09T00:23:17.592Z,34.45
2023-05-09T00:25:44.507Z,34.54
2023-05-09T00:28:11.489Z,34.66
2023-05-09T00:30:38.658Z,34.77
2023-05-09T00:33:05.845Z,34.68
2023-05-09T00:35:34.404Z,34.91
2023-05-09T00:38:03.560Z,34.97
2023-05-09T00:40:31.091Z,35.01
2023-05-09T00:42:59.075Z,35.00
2023-05-09T00:45:26.679Z,35.06
2023-05-09T00:47:54.444Z,35.08
2023-05-09T00:50:23.640Z,35.13
2023-05-09T00:52:51.019Z,35.20
2023-05-09T00:55:20.596Z,35.35
2023-05-09T00:57:47.956Z,35.41
2023-05-09T01:00:15.084Z,35.34
2023-05-09T01:02:43.747Z,35.32
2023-05-09T01:05:11.307Z,35.32
2023-05-09T01:07:51.801Z,35.30
2023-05-09T01:10:50.673Z,35.47
2023-05-09T01:13:18.028Z,35.45
2023-05-09T01:15:45.093Z,35.59
2023-05-09T01:18:29.091Z,35.60
2023-05-09T01:20:57.698Z,35.54
2023-05-09T01:23:44.190Z,35.64
2023-05-09T01:26:36.122Z,35.87
2023-05-09T01:29:14.383Z,35.88
2023-05-09T01:31:42.871Z,36.12
2023-05-09T01:34:10.781Z,36.18
2023-05-09T01:36:38.126Z,36.04
2023-05-09T01:39:05.686Z,36.14
2023-05-09T01:41:37.845Z,36.19
2023-05-09T01:44:06.566Z,36.25
2023-05-09T01:46:33.523Z,36.42
2023-05-09T01:49:00.973Z,36.46
2023-05-09T01:51:27.996Z,36.52
2023-05-09T01:53:55.134Z,36.63
2023-05-09T01:56:22.614Z,36.72
2023-05-09T01:58:50.122Z,36.76
2023-05-09T02:01:17.493Z,36.80
2023-05-09T02:03:45.138Z,36.90
2023-05-09T02:06:12.046Z,37.08
2023-05-09T02:08:40.826Z,37.14
2023-05-09T02:11:07.692Z,37.16
2023-05-09T02:13:37.859Z,37.23
2023-05-09T02:16:07.272Z,37.40
2023-05-09T02:18:38.055Z,37.53
2023-05-09T02:21:05.769Z,37.60
2023-05-09T02:23:32.682Z,37.79
2023-05-09T02:26:00.764Z,37.97
2023-05-09T02:28:27.807Z,37.96
2023-05-09T02:30:55.070Z,38.13
2023-05-09T02:33:23.684Z,38.17
2023-05-09T02:35:50.588Z,38.27
2023-05-09T02:38:18.814Z,38.31
2023-05-09T02:40:46.350Z,38.48
2023-05-09T02:43:14.785Z,38.49
2023-05-09T02:45:41.793Z,38.63
2023-05-09T02:48:09.360Z,38.68
2023-05-09T02:50:41.395Z,38.66
2023-05-09T02:53:09.285Z,38.68
2023-05-09T02:55:36.347Z,38.76
2023-05-09T02:58:13.319Z,38.86
2023-05-09T03:00:42.238Z,38.91
2023-05-09T03:03:09.646Z,38.91
2023-05-09T03:05:36.663Z,38.77
2023-05-09T03:08:04.701Z,38.89
2023-05-09T03:10:33.786Z,38.82
2023-05-09T03:13:01.003Z,38.68
2023-05-09T03:15:28.530Z,38.53
2023-05-09T03:17:55.661Z,38.61
2023-05-09T03:20:22.649Z,38.57
2023-05-09T03:22:49.740Z,38.35
2023-05-09T03:25:16.987Z,38.36
2023-05-09T03:27:44.577Z,38.43
2023-05-09T03:30:14.018Z,38.49
2023-05-09T03:32:43.804Z,38.46
2023-05-09T03:35:10.832Z,38.27
2023-05-09T03:37:39.415Z,38.24
2023-05-09T03:40:07.659Z,38.39
2023-05-09T03:42:41.407Z,38.08
2023-05-09T03:45:09.010Z,37.99
2023-05-09T03:47:36.945Z,37.85
2023-05-09T03:50:05.636Z,37.64
2023-05-09T03:52:35.725Z,37.54
2023-05-09T03:55:03.585Z,37.40
2023-05-09T03:57:34.709Z,37.32
2023-05-09T04:00:04.478Z,37.26
2023-05-09T04:02:41.952Z,36.87
2023-05-09T04:05:13.626Z,36.47
2023-05-09T04:07:40.999Z,36.38
2023-05-09T04:10:09.049Z,36.29
2023-05-09T04:12:36.625Z,36.13
2023-05-09T04:15:03.845Z,36.05
2023-05-09T04:17:31.804Z,35.92
2023-05-09T04:19:58.730Z,35.80
2023-05-09T04:22:25.989Z,35.72
2023-05-09T04:24:53.304Z,35.59
2023-05-09T04:27:20.545Z,35.63
2023-05-09T04:29:48.833Z,35.47
2023-05-09T04:32:15.806Z,35.25
2023-05-09T04:34:45.642Z,35.12
2023-05-09T04:37:16.728Z,34.71
2023-05-09T04:39:43.755Z,34.68
2023-05-09T04:42:19.581Z,34.76
2023-05-09T04:44:47.617Z,34.60
2023-05-09T04:47:16.023Z,34.63
2023-05-09T04:49:51.004Z,34.54
2023-05-09T04:52:18.618Z,34.51
2023-05-09T04:54:45.531Z,34.43
2023-05-09T04:57:18.018Z,33.84
2023-05-09T04:59:48.137Z,33.83
2023-05-09T05:02:15.590Z,33.92
2023-05-09T05:04:43.158Z,33.93
2023-05-09T05:07:10.256Z,33.69
2023-05-09T05:09:38.349Z,33.37
2023-05-09T05:12:09.126Z,33.57
2023-05-09T05:14:36.851Z,33.75
2023-05-09T05:17:04.755Z,33.50
2023-05-09T05:19:32.623Z,32.98
2023-05-09T05:22:00.157Z,32.90
2023-05-09T05:24:29.430Z,33.25
2023-05-09T05:26:56.377Z,33.22
2023-05-09T05:29:23.504Z,32.97
2023-05-09T05:31:50.393Z,32.75
2023-05-09T05:34:17.760Z,32.51
2023-05-09T05:36:47.504Z,32.45
2023-05-09T05:39:14.396Z,32.19
2023-05-09T05:41:43.331Z,32.26
2023-05-09T05:44:10.484Z,31.98
2023-05-09T05:46:38.571Z,32.42
2023-05-09T05:49:05.864Z,31.62
2023-05-09T05:51:36.367Z,31.54
2023-05-09T05:54:03.896Z,31.37
2023-05-09T05:56:31.450Z,31.21
2023-05-09T05:58:58.560Z,31.26
2023-05-09T06:01:25.857Z,31.30
2023-05-09T06:03:54.386Z,31.30
2023-05-09T06:06:21.832Z,31.34
2023-05-09T06:08:51.440Z,30.74
2023-05-09T06:11:18.516Z,31.14
2023-05-09T06:13:46.166Z,31.27
2023-05-09T06:16:19.540Z,30.63
2023-05-09T06:18:53.314Z,30.29
2023-05-09T06:24:19.931Z,30.06
2023-05-09T06:26:57.068Z,29.67
2023-05-09T06:29:25.211Z,29.72
2023-05-09T06:31:52.969Z,30.11
2023-05-09T06:34:22.881Z,29.60
2023-05-09T06:36:50.412Z,28.98
2023-05-09T06:39:18.129Z,28.83
2023-05-09T06:41:46.301Z,29.09
2023-05-09T06:44:18.750Z,29.09
2023-05-09T06:46:45.972Z,29.09
2023-05-09T06:49:14.040Z,28.80
2023-05-09T06:51:41.530Z,28.71
2023-05-09T06:54:08.378Z,28.46
2023-05-09T06:56:35.882Z,27.86
2023-05-09T06:59:07.765Z,27.70
2023-05-09T07:01:35.261Z,27.76
2023-05-09T07:04:02.177Z,28.19
2023-05-09T07:06:29.877Z,27.66
2023-05-09T07:08:56.742Z,27.19
2023-05-09T07:11:23.729Z,26.33
2023-05-09T07:13:52.108Z,26.26
2023-05-09T07:16:22.519Z,26.07
2023-05-09T07:18:49.428Z,26.25
2023-05-09T07:21:16.498Z,25.61
2023-05-09T07:23:49.836Z,25.19
2023-05-09T07:26:16.873Z,25.27
2023-05-09T07:28:44.149Z,25.65
2023-05-09T07:31:11.137Z,25.53
2023-05-09T07:33:38.819Z,25.12
2023-05-09T07:36:05.827Z,25.73
2023-05-09T07:38:33.491Z,26.06
2023-05-09T07:41:00.728Z,25.42
2023-05-09T07:43:27.534Z,25.21
2023-05-09T07:45:54.363Z,24.57
2023-05-09T07:48:21.181Z,24.80
2023-05-09T07:50:48.852Z,24.34
2023-05-09T07:53:15.665Z,23.48
2023-05-09T07:55:45.489Z,24.00
2023-05-09T07:58:12.729Z,24.39
2023-05-09T08:00:40.237Z,24.12
2023-05-09T08:03:07.340Z,22.39
2023-05-09T08:05:35.051Z,22.00
2023-05-09T08:08:02.073Z,21.66
2023-05-09T08:10:33.420Z,20.87
2023-05-09T08:13:03.138Z,20.99
2023-05-09T08:15:31.400Z,21.28
2023-05-09T08:17:59.583Z,21.37
2023-05-09T08:20:26.489Z,21.32
2023-05-09T08:22:53.705Z,21.78
2023-05-09T08:25:20.621Z,21.68
2023-05-09T08:27:47.497Z,20.98
2023-05-09T08:30:14.810Z,20.76
2023-05-09T08:32:42.548Z,20.71
2023-05-09T08:35:09.547Z,21.07
2023-05-09T08:37:37.034Z,21.20
2023-05-09T08:40:07.265Z,21.56
2023-05-09T08:42:39.092Z,20.76
2023-05-09T08:45:09.339Z,20.89
2023-05-09T08:47:37.077Z,21.34
2023-05-09T08:50:04.601Z,21.50
2023-05-09T08:52:33.042Z,21.36
2023-05-09T08:55:04.467Z,21.38
2023-05-09T08:57:32.314Z,20.84
2023-05-09T08:59:59.065Z,19.93
2023-05-09T09:02:26.626Z,20.26
2023-05-09T09:04:54.219Z,20.33
2023-05-09T09:07:21.077Z,19.66
2023-05-09T09:09:48.798Z,19.57
2023-05-09T09:12:17.422Z,19.29
2023-05-09T09:14:51.033Z,19.36
2023-05-09T09:17:19.189Z,19.70
2023-05-09T09:19:51.667Z,20.04
2023-05-09T09:22:18.733Z,20.14
2023-05-09T09:24:45.617Z,20.16
2023-05-09T09:27:12.382Z,19.60
2023-05-09T09:29:40.603Z,19.62
2023-05-09T09:32:07.732Z,19.84
2023-05-09T09:34:34.545Z,20.03
2023-05-09T09:37:01.632Z,20.28
2023-05-09T09:39:30.697Z,19.69
2023-05-09T09:41:57.723Z,20.11
2023-05-09T09:44:24.693Z,19.90
2023-05-09T09:46:53.033Z,20.65
2023-05-09T09:49:24.648Z,20.18
2023-05-09T09:51:56.067Z,20.49
2023-05-09T09:54:22.894Z,20.00
2023-05-09T09:56:51.664Z,19.75
2023-05-09T09:59:24.310Z,19.85
2023-05-09T10:02:08.361Z,19.33
2023-05-09T10:04:36.888Z,19.22
2023-05-09T10:07:05.641Z,19.14
2023-05-09T10:09:33.611Z,19.07
2023-05-09T10:12:06.783Z,19.61
2023-05-09T10:14:37.808Z,19.55
2023-05-09T10:17:05.633Z,19.78
2023-05-09T10:19:32.764Z,19.50
2023-05-09T10:22:04.927Z,19.23
2023-05-09T10:24:38.181Z,19.22
2023-05-09T10:27:08.894Z,19.56
2023-05-09T10:29:44.014Z,19.74
2023-05-09T10:32:31.740Z,19.65
2023-05-09T10:35:01.972Z,19.67
2023-05-09T10:37:30.553Z,19.98
2023-05-09T10:40:00.951Z,20.26
2023-05-09T10:42:27.987Z,20.56
2023-05-09T10:44:55.019Z,20.76
2023-05-09T10:47:27.615Z,19.65
2023-05-09T10:49:55.074Z,19.92
2023-05-09T10:52:26.580Z,19.75
2023-05-09T10:55:03.112Z,18.65
2023-05-09T10:57:31.940Z,18.49
2023-05-09T10:59:59.890Z,18.92
2023-05-09T11:02:31.557Z,19.21
2023-05-09T11:05:22.314Z,18.93
2023-05-09T11:08:49.370Z,18.49
2023-05-09T11:11:25.064Z,19.00
2023-05-09T11:13:56.983Z,18.59
2023-05-09T11:16:24.028Z,18.62
2023-05-09T11:18:53.461Z,19.21
2023-05-09T11:21:20.511Z,19.75
2023-05-09T11:23:49.886Z,19.22
2023-05-09T11:26:17.119Z,19.34
2023-05-09T11:28:53.576Z,18.81
2023-05-09T11:31:20.451Z,18.72
2023-05-09T11:33:57.787Z,18.95
2023-05-09T11:36:29.771Z,19.54
2023-05-09T11:39:07.926Z,19.06
2023-05-09T11:41:46.081Z,18.84
2023-05-09T11:44:19.680Z,19.04
2023-05-09T11:46:47.612Z,19.14
2023-05-09T11:49:14.667Z,19.20
2023-05-09T11:51:42.080Z,19.43
2023-05-09T11:54:09.987Z,19.45
2023-05-09T11:56:38.743Z,20.17
2023-05-09T11:59:10.301Z,19.73
2023-05-09T12:01:37.341Z,19.36
2023-05-09T12:04:06.889Z,19.31
2023-05-09T12:06:33.820Z,19.15
2023-05-09T12:09:00.681Z,19.32
2023-05-09T12:11:29.394Z,19.37
2023-05-09T12:13:57.258Z,19.46
2023-05-09T12:16:24.109Z,19.83
2023-05-09T12:18:52.113Z,19.59
2023-05-09T12:21:19.515Z,19.03
2023-05-09T12:23:48.958Z,18.94
2023-05-09T12:26:18.091Z,18.93
2023-05-09T12:28:45.249Z,19.18
2023-05-09T12:31:12.466Z,18.84
2023-05-09T12:33:39.512Z,18.67
2023-05-09T12:36:12.253Z,18.98
2023-05-09T12:38:39.172Z,18.60
2023-05-09T12:41:10.696Z,18.72
2023-05-09T12:43:48.982Z,18.60
2023-05-09T12:46:19.601Z,18.95
2023-05-09T12:48:49.373Z,18.78
2023-05-09T12:51:23.031Z,18.78
2023-05-09T12:53:49.856Z,18.93
2023-05-09T12:56:18.668Z,19.09
2023-05-09T12:58:50.860Z,18.86
2023-05-09T13:01:19.180Z,18.80
2023-05-09T13:03:54.067Z,18.27
2023-05-09T13:06:21.658Z,18.40
2023-05-09T13:08:58.534Z,18.91
2023-05-09T13:11:25.520Z,18.08
2023-05-09T13:13:55.271Z,17.81
2023-05-09T13:16:22.167Z,17.72
2023-05-09T13:18:50.188Z,17.94
2023-05-09T13:21:21.886Z,18.11
2023-05-09T13:23:51.613Z,18.25
2023-05-09T13:26:18.732Z,18.44
2023-05-09T13:28:48.228Z,18.52
2023-05-09T13:31:15.252Z,18.77
2023-05-09T13:33:42.213Z,18.55
2023-05-09T13:36:09.076Z,18.70
2023-05-09T13:38:39.948Z,19.02
2023-05-09T13:41:06.917Z,19.19
2023-05-09T13:43:37.752Z,19.47
2023-05-09T13:46:05.725Z,19.67
2023-05-09T13:48:33.625Z,19.50
2023-05-09T13:51:00.905Z,19.77
2023-05-09T13:53:27.892Z,19.80
2023-05-09T13:55:54.804Z,19.73
2023-05-09T13:58:22.160Z,20.10
2023-05-09T14:00:49.169Z,19.74
2023-05-09T14:03:16.511Z,20.40
2023-05-09T14:05:43.399Z,20.63
2023-05-09T14:08:10.750Z,20.55
2023-05-09T14:10:41.197Z,20.03
2023-05-09T14:13:11.090Z,19.93
2023-05-09T14:15:38.290Z,19.89
2023-05-09T14:18:08.423Z,19.91
2023-05-09T14:20:44.336Z,20.01
2023-05-09T14:23:15.711Z,20.17
2023-05-09T14:25:51.547Z,19.86
2023-05-09T14:28:39.063Z,19.59
2023-05-09T14:31:07.015Z,19.42
2023-05-09T14:33:35.608Z,19.50
2023-05-09T14:36:03.705Z,19.59
2023-05-09T14:38:32.428Z,19.45
2023-05-09T14:40:59.293Z,19.52
2023-05-09T14:43:26.322Z,19.86
2023-05-09T14:45:54.829Z,19.84
2023-05-09T14:48:21.641Z,19.70
2023-05-09T14:50:49.496Z,20.17
2023-05-09T14:53:16.370Z,19.75
2023-05-09T14:55:46.691Z,19.70
2023-05-09T14:58:13.883Z,19.85
2023-05-09T15:00:41.356Z,20.05
2023-05-09T15:03:08.195Z,20.10
2023-05-09T15:05:36.796Z,20.04
2023-05-09T15:08:03.804Z,20.05
2023-05-09T15:10:32.451Z,19.96
2023-05-09T15:13:00.041Z,20.05
2023-05-09T15:15:27.163Z,20.11
2023-05-09T15:17:54.255Z,20.25
2023-05-09T15:20:21.629Z,20.21
2023-05-09T15:22:49.244Z,20.08
2023-05-09T15:25:17.038Z,20.28
2023-05-09T15:27:44.083Z,20.26
2023-05-09T15:30:11.757Z,19.90
2023-05-09T15:32:40.141Z,19.93
2023-05-09T15:35:07.962Z,19.87
2023-05-09T15:37:37.365Z,19.78
2023-05-09T15:40:04.719Z,19.50
2023-05-09T15:42:34.797Z,19.53
2023-05-09T15:45:03.150Z,19.52
2023-05-09T15:47:30.865Z,19.71
2023-05-09T15:50:01.453Z,19.64
2023-05-09T15:52:28.864Z,19.32
2023-05-09T15:54:56.883Z,19.28
2023-05-09T15:57:24.558Z,19.38
2023-05-09T15:59:54.668Z,19.78
2023-05-09T16:02:22.559Z,20.01
2023-05-09T16:04:49.426Z,20.16
2023-05-09T16:07:19.006Z,20.55
2023-05-09T16:09:46.126Z,20.73
2023-05-09T16:12:13.460Z,20.66
2023-05-09T16:14:40.316Z,20.88
2023-05-09T16:17:09.212Z,20.84
2023-05-09T16:19:36.356Z,20.84
2023-05-09T16:22:03.284Z,20.93
2023-05-09T16:24:31.412Z,20.99
2023-05-09T16:26:58.255Z,21.14
2023-05-09T16:29:26.910Z,21.20
2023-05-09T16:31:54.355Z,21.38
2023-05-09T16:34:21.369Z,21.44
2023-05-09T16:36:48.947Z,21.51
2023-05-09T16:39:17.854Z,21.71
2023-05-09T16:41:44.863Z,21.90
2023-05-09T16:44:13.015Z,21.84
2023-05-09T16:46:41.788Z,21.87
2023-05-09T16:49:15.829Z,22.11
2023-05-09T16:51:43.833Z,22.27
2023-05-09T16:54:11.618Z,22.52
2023-05-09T16:56:38.733Z,22.60
2023-05-09T16:59:05.529Z,22.63
2023-05-09T17:01:32.712Z,22.75
2023-05-09T17:04:01.432Z,22.92
2023-05-09T17:06:29.193Z,23.24
2023-05-09T17:08:57.196Z,23.39
2023-05-09T17:11:24.846Z,23.51
2023-05-09T17:13:51.858Z,23.71
2023-05-09T17:16:18.886Z,23.89
2023-05-09T17:18:47.404Z,24.12
2023-05-09T17:21:15.325Z,24.17
2023-05-09T17:23:42.308Z,24.22
2023-05-09T17:26:09.147Z,24.45
2023-05-09T17:28:36.370Z,24.51
2023-05-09T17:31:03.730Z,24.74
2023-05-09T17:33:31.027Z,24.82
2023-05-09T17:35:59.692Z,24.93
2023-05-09T17:38:26.798Z,25.14
2023-05-09T17:40:53.666Z,25.30
2023-05-09T17:43:21.788Z,25.45
2023-05-09T17:45:48.741Z,25.67
2023-05-09T17:48:16.199Z,25.83
2023-05-09T17:50:43.543Z,25.84
2023-05-09T17:53:10.784Z,26.00
2023-05-09T17:55:37.655Z,26.10
2023-05-09T17:58:04.689Z,26.33
2023-05-09T18:00:31.940Z,26.34
2023-05-09T18:03:00.951Z,26.48
2023-05-09T18:05:28.086Z,26.56
2023-05-09T18:07:56.239Z,26.69
2023-05-09T18:10:23.074Z,26.81
2023-05-09T18:12:51.361Z,26.92
2023-05-09T18:15:18.254Z,26.95
2023-05-09T18:17:47.795Z,27.11
2023-05-09T18:20:14.848Z,27.23
2023-05-09T18:22:42.025Z,27.33
2023-05-09T18:25:11.558Z,27.48
2023-05-09T18:27:38.813Z,27.59
2023-05-09T18:30:07.472Z,27.66
2023-05-09T18:32:36.672Z,27.74
2023-05-09T18:35:03.767Z,27.92
2023-05-09T18:37:31.127Z,27.97
2023-05-09T18:39:57.947Z,28.15
2023-05-09T18:42:24.804Z,28.20
2023-05-09T18:44:53.945Z,28.34
2023-05-09T18:47:22.687Z,28.37
2023-05-09T18:49:51.168Z,28.24
2023-05-09T18:52:20.390Z,28.42
2023-05-09T18:54:50.513Z,28.29
2023-05-09T18:57:19.377Z,28.34
2023-05-09T18:59:46.787Z,28.09
2023-05-09T19:02:20.590Z,28.08
2023-05-09T19:04:50.025Z,28.06
2023-05-09T19:07:19.949Z,27.93
2023-05-09T19:09:47.740Z,27.88
2023-05-09T19:12:17.138Z,27.93
2023-05-09T19:14:44.237Z,27.94
2023-05-09T19:17:11.133Z,27.93
2023-05-09T19:19:39.288Z,28.04
2023-05-09T19:22:06.426Z,27.86
2023-05-09T19:24:33.704Z,27.92
2023-05-09T19:27:00.464Z,27.86
2023-05-09T19:29:28.198Z,27.95
2023-05-09T19:31:56.199Z,27.75
2023-05-09T19:37:25.706Z,27.66
2023-05-09T19:39:53.156Z,27.70
2023-05-09T19:42:21.702Z,27.65
2023-05-09T19:44:51.841Z,27.80
2023-05-09T19:47:19.467Z,27.86
2023-05-09T19:49:51.152Z,28.18
2023-05-09T19:52:23.482Z,28.28
2023-05-09T19:54:52.186Z,28.60
2023-05-09T19:57:33.090Z,29.03
2023-05-09T20:00:00.741Z,29.18
2023-05-09T20:02:33.107Z,29.92
2023-05-09T20:05:00.101Z,30.41
2023-05-09T20:07:29.131Z,30.69
2023-05-09T20:09:55.851Z,31.00
2023-05-09T20:12:22.707Z,31.05
2023-05-09T20:14:49.477Z,31.11
2023-05-09T20:17:16.848Z,31.35
2023-05-09T20:19:43.694Z,31.26
2023-05-09T20:22:11.015Z,31.32
2023-05-09T20:24:37.894Z,31.55
2023-05-09T20:27:07.509Z,31.59
2023-05-09T20:29:48.959Z,31.85
2023-05-09T20:32:16.573Z,31.86
2023-05-09T20:34:43.996Z,31.77
2023-05-09T20:37:11.612Z,31.51
2023-05-09T20:39:38.644Z,31.54
2023-05-09T20:42:06.322Z,31.35
2023-05-09T20:44:33.565Z,31.33
2023-05-09T20:47:03.554Z,31.44
2023-05-09T20:49:30.953Z,31.47
2023-05-09T20:51:58.053Z,31.57
2023-05-09T20:54:25.740Z,31.90
2023-05-09T20:56:52.784Z,32.32
2023-05-09T20:59:19.893Z,32.48
2023-05-09T21:01:49.051Z,32.64
2023-05-09T21:04:16.409Z,32.80
2023-05-09T21:06:43.426Z,32.86
2023-05-09T21:09:11.650Z,33.17
2023-05-09T21:11:41.507Z,33.31
2023-05-09T21:14:09.166Z,33.42
2023-05-09T21:16:36.941Z,33.63
2023-05-09T21:19:04.890Z,33.85
2023-05-09T21:21:32.690Z,34.15
2023-05-09T21:24:02.652Z,34.21
2023-05-09T21:26:30.036Z,34.26
2023-05-09T21:28:56.893Z,34.35
2023-05-09T21:31:23.674Z,34.47
2023-05-09T21:33:51.568Z,34.52
2023-05-09T21:36:18.521Z,34.74
2023-05-09T21:38:45.299Z,34.66
2023-05-09T21:41:12.345Z,34.64
2023-05-09T21:43:39.100Z,34.64
2023-05-09T21:46:05.871Z,34.69
2023-05-09T21:48:33.279Z,34.72
2023-05-09T21:51:01.985Z,35.08
2023-05-09T21:53:29.224Z,35.40
2023-05-09T21:55:58.701Z,35.60
2023-05-09T21:58:25.483Z,35.87
2023-05-09T22:00:52.816Z,36.16
2023-05-09T22:03:19.642Z,36.32
2023-05-09T22:05:46.480Z,36.55
2023-05-09T22:08:15.333Z,36.68
2023-05-09T22:10:42.355Z,36.82
2023-05-09T22:13:09.420Z,36.86
2023-05-09T22:15:36.212Z,37.04
2023-05-09T22:18:03.152Z,37.09
2023-05-09T22:20:30.148Z,37.18
2023-05-09T22:22:56.868Z,37.12
2023-05-09T22:25:23.654Z,37.02
2023-05-09T22:27:50.534Z,37.04
2023-05-09T22:30:17.519Z,37.07
2023-05-09T22:32:44.647Z,37.13
2023-05-09T22:35:12.010Z,37.31
2023-05-09T22:37:46.051Z,37.38
2023-05-09T22:40:14.530Z,37.34
2023-05-09T22:42:41.573Z,37.23
2023-05-09T22:45:08.658Z,37.24
2023-05-09T22:47:37.139Z,37.29
2023-05-09T22:50:04.196Z,37.44
2023-05-09T22:52:31.682Z,37.47
2023-05-09T22:54:58.444Z,37.55
2023-05-09T22:57:25.617Z,37.58
2023-05-09T22:59:53.295Z,37.63
2023-05-09T23:02:20.703Z,37.81
2023-05-09T23:04:47.582Z,37.92
2023-05-09T23:07:14.705Z,37.98
2023-05-09T23:09:41.646Z,37.95
2023-05-09T23:12:10.030Z,37.74
2023-05-09T23:14:36.836Z,38.07
2023-05-09T23:17:03.646Z,39.37
2023-05-09T23:19:30.538Z,40.16
2023-05-09T23:21:58.945Z,41.06
2023-05-09T23:24:25.769Z,41.30
2023-05-09T23:26:53.404Z,40.98
2023-05-09T23:29:20.239Z,40.98
2023-05-09T23:31:47.709Z,40.66
2023-05-09T23:34:14.614Z,40.47
2023-05-09T23:36:41.402Z,40.33
2023-05-09T23:39:08.203Z,40.20
2023-05-09T23:41:35.335Z,39.88
2023-05-09T23:44:02.905Z,39.64
2023-05-09T23:46:29.960Z,39.45
2023-05-09T23:48:56.794Z,39.46
2023-05-09T23:51:23.751Z,39.50
2023-05-09T23:53:50.686Z,39.51
2023-05-09T23:56:17.486Z,39.70
2023-05-09T23:58:44.282Z,39.79
